sensor_id;sensor_type;location;lat;lon;timestamp;P1;durP1;ratioP1;P2;durP2;ratioP2
40248;SDS011;25969;49.970;11.062;2023-09-18T04:09:54;4.82;;;4.32;;
40248;SDS011;25969;49.970;11.062;2023-09-18T04:19:55;8.93;;;4.60;;
40248;SDS011;25969;49.970;11.062;2023-09-18T04:29:55;5.57;;;4.45;;
40248;SDS011;25969;49.970;11.062;2023-09-18T04:39:59;6.47;;;5.22;;
40248;SDS011;25969;49.970;11.062;2023-09-18T04:50:00;6.15;;;3.85;;
40248;SDS011;25969;49.970;11.062;2023-09-18T05:00:06;5.32;;;4.03;;
40248;SDS011;25969;49.970;11.062;2023-09-18T05:10:13;5.10;;;4.03;;
40248;SDS011;25969;49.970;11.062;2023-09-18T05:30:19;5.93;;;4.20;;
40248;SDS011;25969;49.970;11.062;2023-09-18T05:40:24;4.45;;;4.00;;
40248;SDS011;25969;49.970;11.062;2023-09-18T05:50:28;5.15;;;4.13;;
40248;SDS011;25969;49.970;11.062;2023-09-18T06:00:30;4.97;;;4.47;;
40248;SDS011;25969;49.970;11.062;2023-09-18T06:10:32;4.88;;;4.38;;
40248;SDS011;25969;49.970;11.062;2023-09-18T06:20:33;8.38;;;4.28;;
40248;SDS011;25969;49.970;11.062;2023-09-18T06:30:34;5.18;;;3.50;;
40248;SDS011;25969;49.970;11.062;2023-09-18T06:40:36;4.47;;;3.70;;
40248;SDS011;25969;49.970;11.062;2023-09-18T06:50:37;4.43;;;3.72;;
40248;SDS011;25969;49.970;11.062;2023-09-18T07:00:39;3.95;;;3.63;;
40248;SDS011;25969;49.970;11.062;2023-09-18T07:10:39;4.85;;;3.72;;
40248;SDS011;25969;49.970;11.062;2023-09-18T07:20:40;6.45;;;3.72;;
40248;SDS011;25969;49.970;11.062;2023-09-18T07:30:42;5.45;;;3.25;;
40248;SDS011;25969;49.970;11.062;2023-09-18T07:40:43;8.40;;;3.97;;
40248;SDS011;25969;49.970;11.062;2023-09-18T07:50:45;6.88;;;3.97;;
40248;SDS011;25969;49.970;11.062;2023-09-18T08:00:46;6.88;;;3.95;;
40248;SDS011;25969;49.970;11.062;2023-09-18T08:10:49;5.95;;;4.18;;
40248;SDS011;25969;49.970;11.062;2023-09-18T08:20:50;4.00;;;3.60;;
40248;SDS011;25969;49.970;11.062;2023-09-18T08:30:51;8.85;;;3.45;;
40248;SDS011;25969;49.970;11.062;2023-09-18T08:40:53;7.78;;;3.28;;
40248;SDS011;25969;49.970;11.062;2023-09-18T08:50:54;4.75;;;2.90;;
40248;SDS011;25969;49.970;11.062;2023-09-18T09:00:55;5.88;;;3.28;;
40248;SDS011;25969;49.970;11.062;2023-09-18T09:10:58;4.80;;;2.90;;
40248;SDS011;25969;49.970;11.062;2023-09-18T09:21:00;12.93;;;3.10;;
40248;SDS011;25969;49.970;11.062;2023-09-18T09:31:04;6.45;;;2.30;;
40248;SDS011;25969;49.970;11.062;2023-09-18T09:41:05;6.13;;;2.00;;
40248;SDS011;25969;49.970;11.062;2023-09-18T09:51:07;4.97;;;2.40;;
40248;SDS011;25969;49.970;11.062;2023-09-18T10:01:09;3.65;;;2.03;;
40248;SDS011;25969;49.970;11.062;2023-09-18T10:11:17;5.22;;;2.28;;
40248;SDS011;25969;49.970;11.062;2023-09-18T10:22:09;3.47;;;1.60;;
40248;SDS011;25969;49.970;11.062;2023-09-18T10:32:06;5.60;;;1.42;;
40248;SDS011;25969;49.970;11.062;2023-09-18T10:42:11;4.38;;;1.83;;
40248;SDS011;25969;49.970;11.062;2023-09-18T10:52:14;5.53;;;1.45;;
40248;SDS011;25969;49.970;11.062;2023-09-18T11:02:15;3.88;;;1.27;;
40248;SDS011;25969;49.970;11.062;2023-09-18T11:12:17;4.78;;;1.23;;
40248;SDS011;25969;49.970;11.062;2023-09-18T11:22:18;10.15;;;1.10;;
40248;SDS011;25969;49.970;11.062;2023-09-18T11:32:37;4.55;;;0.60;;
40248;SDS011;25969;49.970;11.062;2023-09-18T11:42:40;6.32;;;0.80;;
40248;SDS011;25969;49.970;11.062;2023-09-18T11:53:19;6.03;;;0.87;;
40248;SDS011;25969;49.970;11.062;2023-09-18T12:03:22;5.10;;;1.10;;
40248;SDS011;25969;49.970;11.062;2023-09-18T12:13:27;4.93;;;1.10;;
40248;SDS011;25969;49.970;11.062;2023-09-18T12:23:36;3.90;;;0.93;;
40248;SDS011;25969;49.970;11.062;2023-09-18T12:33:38;3.30;;;1.00;;
40248;SDS011;25969;49.970;11.062;2023-09-18T12:43:40;6.63;;;0.90;;
40248;SDS011;25969;49.970;11.062;2023-09-18T12:53:41;2.70;;;0.75;;
40248;SDS011;25969;49.970;11.062;2023-09-18T13:03:42;2.70;;;0.73;;
40248;SDS011;25969;49.970;11.062;2023-09-18T13:13:44;1.02;;;0.50;;
40248;SDS011;25969;49.970;11.062;2023-09-18T13:23:45;5.22;;;1.02;;
40248;SDS011;25969;49.970;11.062;2023-09-18T13:33:45;7.97;;;1.23;;
40248;SDS011;25969;49.970;11.062;2023-09-18T13:53:49;4.82;;;1.02;;
40248;SDS011;25969;49.970;11.062;2023-09-18T14:03:49;4.13;;;1.30;;
40248;SDS011;25969;49.970;11.062;2023-09-18T14:13:50;2.10;;;0.63;;
40248;SDS011;25969;49.970;11.062;2023-09-18T14:23:52;3.70;;;0.95;;
40248;SDS011;25969;49.970;11.062;2023-09-18T14:33:53;4.30;;;1.00;;
40248;SDS011;25969;49.970;11.062;2023-09-18T14:43:53;2.37;;;0.90;;
40248;SDS011;25969;49.970;11.062;2023-09-18T14:53:55;5.60;;;0.93;;
40248;SDS011;25969;49.970;11.062;2023-09-18T15:03:56;1.98;;;0.68;;
40248;SDS011;25969;49.970;11.062;2023-09-18T15:13:57;5.57;;;0.80;;
40248;SDS011;25969;49.970;11.062;2023-09-18T15:33:58;1.43;;;0.50;;
40248;SDS011;25969;49.970;11.062;2023-09-18T15:43:59;18.42;;;9.77;;
40248;SDS011;25969;49.970;11.062;2023-09-18T15:54:00;2.85;;;1.35;;
40248;SDS011;25969;49.970;11.062;2023-09-18T16:04:00;1.83;;;0.80;;
40248;SDS011;25969;49.970;11.062;2023-09-18T16:14:01;3.15;;;1.13;;
40248;SDS011;25969;49.970;11.062;2023-09-18T16:24:02;3.35;;;1.30;;
40248;SDS011;25969;49.970;11.062;2023-09-18T16:34:07;0.43;;;0.40;;
40248;SDS011;25969;49.970;11.062;2023-09-18T16:44:07;2.28;;;0.95;;
40248;SDS011;25969;49.970;11.062;2023-09-18T16:54:08;2.17;;;0.52;;
40248;SDS011;25969;49.970;11.062;2023-09-18T17:04:10;2.00;;;0.50;;
40248;SDS011;25969;49.970;11.062;2023-09-18T17:14:12;2.53;;;0.80;;
40248;SDS011;25969;49.970;11.062;2023-09-18T17:24:14;3.20;;;0.50;;
40248;SDS011;25969;49.970;11.062;2023-09-18T17:34:16;1.52;;;0.70;;
40248;SDS011;25969;49.970;11.062;2023-09-18T17:54:19;3.50;;;0.80;;
40248;SDS011;25969;49.970;11.062;2023-09-18T18:04:19;4.88;;;0.90;;
40248;SDS011;25969;49.970;11.062;2023-09-18T18:14:21;3.50;;;1.15;;
40248;SDS011;25969;49.970;11.062;2023-09-18T18:24:22;4.15;;;1.40;;
40248;SDS011;25969;49.970;11.062;2023-09-18T18:44:25;3.58;;;1.30;;
40248;SDS011;25969;49.970;11.062;2023-09-18T18:54:25;2.63;;;1.30;;
40248;SDS011;25969;49.970;11.062;2023-09-18T19:04:26;4.53;;;1.60;;
40248;SDS011;25969;49.970;11.062;2023-09-18T19:34:31;5.35;;;1.65;;
40248;SDS011;25969;49.970;11.062;2023-09-18T19:44:32;3.78;;;1.48;;
40248;SDS011;25969;49.970;11.062;2023-09-18T19:54:33;6.63;;;1.67;;
40248;SDS011;25969;49.970;11.062;2023-09-18T20:04:34;3.70;;;1.33;;
40248;SDS011;25969;49.970;11.062;2023-09-18T20:24:42;2.08;;;1.30;;
40248;SDS011;25969;49.970;11.062;2023-09-18T20:44:44;3.80;;;1.10;;
40248;SDS011;25969;49.970;11.062;2023-09-18T20:54:46;5.55;;;1.20;;
40248;SDS011;25969;49.970;11.062;2023-09-18T21:04:47;3.10;;;1.08;;
40248;SDS011;25969;49.970;11.062;2023-09-18T21:14:47;5.90;;;1.20;;
40248;SDS011;25969;49.970;11.062;2023-09-18T21:34:50;3.43;;;1.07;;
40248;SDS011;25969;49.970;11.062;2023-09-18T21:44:51;2.22;;;0.73;;
40248;SDS011;25969;49.970;11.062;2023-09-18T21:54:52;1.42;;;0.98;;
